Time;durP1;ratioP1;P1;durP2;ratioP2;P2;SDS_P1;SDS_P2;PMS_P1;PMS_P2;Temp;Humidity;BMP_temperature;BMP_pressure;BME280_temperature;BME280_humidity;BME280_pressure;Samples;Min_cycle;Max_cycle;Signal;HPM_P1;HPM_P2
2023/08/14 00:00:37;;;;;;;5.17;4.60;;;20.10;99.90;;;;;;2067813;28;20226;-65
2023/08/14 00:01:38;;;;;;;5.10;4.10;;;20.10;99.90;;;;;;2062859;28;20233;-65
2023/08/14 00:02:39;;;;;;;5.13;4.13;;;20.20;99.90;;;;;;2063015;28;20272;-65
2023/08/14 00:03:39;;;;;;;4.33;3.87;;;20.20;99.90;;;;;;2062489;28;20595;-65
2023/08/14 00:04:40;;;;;;;4.43;4.00;;;20.20;99.90;;;;;;2061564;28;20225;-65
2023/08/14 00:05:41;;;;;;;5.37;3.97;;;20.20;99.90;;;;;;2063452;28;20218;-64
2023/08/14 00:06:42;;;;;;;5.33;4.70;;;20.20;99.90;;;;;;2066253;28;20874;-64
2023/08/14 00:07:42;;;;;;;6.53;4.97;;;20.00;99.90;;;;;;2064436;28;20317;-64
2023/08/14 00:08:43;;;;;;;6.50;4.90;;;19.80;99.90;;;;;;2062624;28;20222;-64
2023/08/14 00:09:44;;;;;;;7.27;5.10;;;19.50;99.90;;;;;;2061780;28;20321;-64
2023/08/14 00:10:45;;;;;;;5.77;5.20;;;19.30;99.90;;;;;;2066570;28;20264;-64
2023/08/14 00:11:45;;;;;;;9.87;5.33;;;19.10;99.90;;;;;;2065656;28;20629;-64
2023/08/14 00:12:46;;;;;;;5.33;3.70;;;19.00;99.90;;;;;;2065900;28;20300;-64
2023/08/14 00:13:55;;;;;;;4.00;2.87;;;19.00;99.90;;;;;;2061961;28;20587;-64
2023/08/14 00:14:56;;;;;;;3.07;2.17;;;19.00;99.90;;;;;;2070066;28;20224;-64
2023/08/14 00:15:56;;;;;;;3.90;2.37;;;18.70;99.90;;;;;;2069969;28;20856;-64
2023/08/14 00:16:57;;;;;;;6.43;1.83;;;18.60;99.90;;;;;;2061974;28;20305;-65
2023/08/14 00:17:58;;;;;;;8.60;1.60;;;18.50;99.90;;;;;;2113060;22;20269;-84
2023/08/14 00:18:58;;;;;;;4.23;1.73;;;18.30;99.90;;;;;;2063187;28;20219;-85
2023/08/14 00:20:00;;;;;;;4.33;1.50;;;18.00;99.90;;;;;;2063350;28;20238;-85
2023/08/14 00:21:00;;;;;;;2.57;1.50;;;17.80;99.90;;;;;;2059616;28;20223;-86
2023/08/14 00:22:01;;;;;;;1.83;1.30;;;17.50;99.90;;;;;;2052707;28;20512;-85
2023/08/14 00:23:02;;;;;;;2.67;1.60;;;17.40;99.90;;;;;;2056226;28;20230;-86
2023/08/14 00:24:03;;;;;;;1.80;1.50;;;17.30;99.90;;;;;;2063394;28;20182;-85
2023/08/14 00:25:04;;;;;;;3.93;1.43;;;17.30;99.90;;;;;;2062753;28;20257;-85
2023/08/14 00:26:05;;;;;;;2.33;1.50;;;17.30;99.90;;;;;;2070519;28;20430;-86
2023/08/14 00:27:06;;;;;;;1.50;1.40;;;17.30;99.90;;;;;;2067926;28;20419;-83
2023/08/14 00:28:07;;;;;;;3.37;1.30;;;17.30;99.90;;;;;;2055550;28;20508;-86
2023/08/14 00:29:08;;;;;;;2.27;1.73;;;17.30;99.90;;;;;;2055918;28;20223;-85
2023/08/14 00:30:08;;;;;;;2.23;1.60;;;17.30;99.90;;;;;;2055290;28;20320;-86
2023/08/14 00:31:09;;;;;;;2.97;1.50;;;17.40;99.90;;;;;;2062016;28;20747;-86
2023/08/14 00:32:10;;;;;;;2.40;1.70;;;17.50;99.90;;;;;;2062772;28;20205;-86
2023/08/14 00:33:10;;;;;;;2.90;1.30;;;17.50;99.90;;;;;;2063237;28;20336;-86
2023/08/14 00:34:11;;;;;;;3.57;1.50;;;17.40;99.90;;;;;;2071726;28;20677;-86
2023/08/14 00:35:12;;;;;;;2.63;1.30;;;17.50;99.90;;;;;;2071692;28;20206;-86
2023/08/14 00:36:12;;;;;;;1.73;1.50;;;17.50;99.90;;;;;;2067576;28;20201;-85
2023/08/14 00:37:13;;;;;;;3.97;1.67;;;17.60;99.90;;;;;;2059874;28;20605;-86
2023/08/14 00:38:14;;;;;;;2.03;1.50;;;17.70;99.90;;;;;;2051649;28;20259;-86
2023/08/14 00:39:14;;;;;;;2.83;1.23;;;17.70;99.90;;;;;;2061575;28;20197;-86
2023/08/14 00:40:16;;;;;;;2.73;1.40;;;17.80;99.90;;;;;;2061125;28;20199;-86
2023/08/14 00:41:17;;;;;;;2.53;1.23;;;17.80;99.90;;;;;;2067190;28;20194;-85
2023/08/14 00:42:18;;;;;;;1.77;1.43;;;17.80;99.90;;;;;;2055945;28;20440;-87
2023/08/14 00:43:21;;;;;;;1.80;1.47;;;17.80;99.90;;;;;;2059501;28;20285;-86
2023/08/14 00:44:22;;;;;;;1.67;1.30;;;18.00;99.90;;;;;;2072672;28;20802;-86
2023/08/14 00:45:23;;;;;;;1.30;1.20;;;18.10;99.90;;;;;;2063609;28;20483;-86
2023/08/14 00:46:24;;;;;;;4.50;1.87;;;18.10;99.90;;;;;;2061981;28;20231;-86
2023/08/14 00:47:25;;;;;;;1.57;1.47;;;18.10;99.90;;;;;;2061218;28;20233;-86
2023/08/14 00:48:26;;;;;;;1.90;1.30;;;18.20;99.90;;;;;;2048468;28;20548;-86
2023/08/14 00:49:27;;;;;;;1.90;1.40;;;18.20;99.90;;;;;;2064701;28;20253;-86
2023/08/14 00:50:28;;;;;;;2.17;1.60;;;18.30;99.90;;;;;;2064990;28;20964;-86
2023/08/14 00:51:29;;;;;;;2.47;1.50;;;18.30;99.90;;;;;;2064598;28;20233;-86
2023/08/14 00:52:32;;;;;;;1.73;1.30;;;18.30;99.90;;;;;;2063136;28;20793;-85
2023/08/14 00:53:33;;;;;;;2.00;1.60;;;18.40;99.90;;;;;;2064601;28;20233;-85
2023/08/14 00:54:33;;;;;;;2.03;1.57;;;18.40;99.90;;;;;;2070137;28;20467;-86
2023/08/14 00:55:34;;;;;;;2.73;1.50;;;18.40;99.90;;;;;;2064824;28;20582;-86
2023/08/14 00:56:35;;;;;;;2.47;1.50;;;18.40;99.90;;;;;;2063178;28;20279;-87
2023/08/14 00:57:38;;;;;;;2.90;1.50;;;18.30;99.90;;;;;;2069291;28;20229;-86
2023/08/14 00:58:38;;;;;;;3.07;1.70;;;18.30;99.90;;;;;;2072739;28;20471;-86
2023/08/14 00:59:39;;;;;;;2.70;1.60;;;18.30;99.90;;;;;;2072846;28;20482;-85
2023/08/14 01:00:43;;;;;;;4.23;1.50;;;18.30;99.90;;;;;;2064894;28;20248;-85
2023/08/14 01:01:44;;;;;;;2.57;1.60;;;18.30;99.90;;;;;;2068260;28;20228;-85
2023/08/14 01:02:47;;;;;;;3.17;2.00;;;18.30;99.90;;;;;;2060118;28;20844;-86
2023/08/14 01:03:47;;;;;;;2.10;1.90;;;18.30;99.90;;;;;;2068569;28;20229;-86
2023/08/14 01:04:48;;;;;;;3.97;1.83;;;18.20;99.90;;;;;;2064154;28;20486;-86
2023/08/14 01:05:49;;;;;;;2.77;1.70;;;18.20;99.90;;;;;;2055503;28;20229;-86
2023/08/14 01:06:50;;;;;;;2.13;1.87;;;18.20;99.90;;;;;;2063544;28;20230;-86
2023/08/14 01:07:50;;;;;;;3.97;2.10;;;18.20;99.90;;;;;;2063851;28;20758;-86
2023/08/14 01:08:51;;;;;;;3.83;1.80;;;18.30;99.90;;;;;;2061913;28;20221;-85
2023/08/14 01:09:52;;;;;;;5.70;1.93;;;18.30;99.90;;;;;;2074487;28;20240;-85
2023/08/14 01:11:01;;;;;;;3.17;1.80;;;18.30;99.90;;;;;;2064372;28;20484;-86
2023/08/14 01:12:37;;;;;;;2.83;1.87;;;18.30;99.90;;;;;;2063373;28;20214;-85
2023/08/14 01:13:47;;;;;;;6.60;2.20;;;18.10;99.90;;;;;;2060495;28;20467;-85
2023/08/14 01:15:00;;;;;;;5.27;2.23;;;17.90;99.90;;;;;;2065248;28;20468;-85
2023/08/14 01:16:09;;;;;;;3.67;2.10;;;17.90;99.90;;;;;;2064338;28;20555;-86
2023/08/14 01:17:13;;;;;;;4.10;2.00;;;17.80;99.90;;;;;;2071910;28;20450;-85
2023/08/14 01:18:17;;;;;;;1.97;1.77;;;17.70;99.90;;;;;;2060651;28;21259;-85
2023/08/14 01:19:24;;;;;;;2.93;1.70;;;17.70;99.90;;;;;;2064675;28;20432;-85
2023/08/14 01:20:29;;;;;;;2.90;1.90;;;17.70;99.90;;;;;;2064153;28;20479;-85
2023/08/14 01:21:43;;;;;;;2.13;1.50;;;17.80;99.90;;;;;;2055788;28;20543;-85
2023/08/14 01:23:17;;;;;;;3.47;1.70;;;17.90;99.90;;;;;;2058989;28;20538;-86
2023/08/14 01:24:40;;;;;;;3.40;1.80;;;17.90;99.90;;;;;;2057308;28;20452;-85
2023/08/14 01:25:42;;;;;;;3.73;1.90;;;17.90;99.90;;;;;;2067528;28;20497;-85
2023/08/14 01:26:43;;;;;;;4.10;1.90;;;17.90;99.90;;;;;;2075645;28;20466;-85
2023/08/14 01:27:44;;;;;;;2.70;1.73;;;17.90;99.90;;;;;;2068059;28;20501;-85
2023/08/14 01:28:45;;;;;;;2.20;1.70;;;17.90;99.90;;;;;;2064030;28;21047;-85
2023/08/14 01:29:58;;;;;;;3.30;1.83;;;17.90;99.90;;;;;;2064019;28;20460;-85
2023/08/14 01:30:59;;;;;;;2.13;1.70;;;17.80;99.90;;;;;;2072060;28;20494;-85
2023/08/14 01:32:00;;;;;;;2.47;1.90;;;17.90;99.90;;;;;;2062757;28;20480;-86
2023/08/14 01:33:00;;;;;;;2.17;1.60;;;17.90;99.90;;;;;;2060567;28;20222;-85
2023/08/14 01:34:01;;;;;;;2.37;1.80;;;17.90;99.90;;;;;;2068525;28;20224;-85
2023/08/14 01:35:03;;;;;;;3.53;1.97;;;18.00;99.90;;;;;;2069191;28;20224;-85
2023/08/14 01:36:16;;;;;;;2.67;1.77;;;17.90;99.90;;;;;;2071054;28;20177;-85
2023/08/14 01:38:00;;;;;;;1.90;1.57;;;17.90;99.90;;;;;;2057643;28;20465;-85
2023/08/14 01:39:10;;;;;;;3.07;1.93;;;18.00;99.90;;;;;;2056208;28;20482;-86
2023/08/14 01:40:52;;;;;;;2.60;1.70;;;17.90;99.90;;;;;;2062386;28;20421;-85
2023/08/14 01:42:18;;;;;;;4.03;2.13;;;17.80;99.90;;;;;;2066210;28;20465;-86
2023/08/14 01:43:47;;;;;;;2.40;2.00;;;17.90;99.90;;;;;;2063795;28;20485;-84
2023/08/14 01:44:52;;;;;;;3.30;2.10;;;18.00;99.90;;;;;;2071796;28;20458;-86
2023/08/14 01:45:54;;;;;;;2.43;1.60;;;18.00;99.90;;;;;;2075202;28;20470;-86
2023/08/14 01:46:57;;;;;;;3.57;1.70;;;18.00;99.90;;;;;;2074997;28;20561;-85
2023/08/14 01:47:59;;;;;;;4.83;1.90;;;18.00;99.90;;;;;;2061466;28;20543;-86
2023/08/14 01:49:02;;;;;;;2.70;2.13;;;18.10;99.90;;;;;;2065559;28;20587;-85
2023/08/14 01:50:04;;;;;;;3.43;1.87;;;18.00;99.90;;;;;;2069715;28;20529;-85
2023/08/14 01:51:05;;;;;;;3.13;2.20;;;18.00;99.90;;;;;;2064043;28;20440;-85
2023/08/14 01:52:06;;;;;;;2.43;1.80;;;18.00;99.90;;;;;;2065025;28;20460;-86
2023/08/14 01:53:07;;;;;;;2.00;1.80;;;17.80;99.90;;;;;;2058480;28;20471;-85
2023/08/14 01:54:09;;;;;;;5.40;2.33;;;17.60;99.90;;;;;;2057069;28;20429;-85
2023/08/14 01:55:10;;;;;;;2.53;2.10;;;17.70;99.90;;;;;;2055786;28;20202;-85
2023/08/14 01:56:10;;;;;;;2.00;1.80;;;17.70;99.90;;;;;;2060256;28;20887;-84
2023/08/14 01:57:11;;;;;;;2.60;1.80;;;17.70;99.90;;;;;;2061631;28;20245;-86
2023/08/14 01:58:12;;;;;;;2.43;2.00;;;17.80;99.90;;;;;;2075495;28;20721;-85
2023/08/14 01:59:12;;;;;;;2.40;1.97;;;17.90;99.90;;;;;;2063851;28;20193;-85
2023/08/14 02:00:14;;;;;;;3.00;1.90;;;17.80;99.90;;;;;;2064406;28;20646;-85
2023/08/14 02:01:14;;;;;;;2.40;2.10;;;17.80;99.90;;;;;;2084827;28;20233;-85
2023/08/14 02:02:15;;;;;;;2.80;2.07;;;17.80;99.90;;;;;;2072705;28;20484;-85
2023/08/14 02:03:16;;;;;;;1.90;1.70;;;17.70;99.90;;;;;;2075895;28;20194;-86
2023/08/14 02:04:16;;;;;;;1.97;1.80;;;17.80;99.90;;;;;;2075499;28;20178;-85
2023/08/14 02:05:17;;;;;;;2.50;1.70;;;17.70;99.90;;;;;;2055194;28;20212;-86
2023/08/14 02:06:18;;;;;;;4.00;1.90;;;17.80;99.90;;;;;;2046861;28;20192;-85
2023/08/14 02:07:18;;;;;;;2.17;1.97;;;17.90;99.90;;;;;;2060462;28;20702;-85
2023/08/14 02:08:19;;;;;;;5.67;2.30;;;17.90;99.90;;;;;;2064457;28;20287;-85
2023/08/14 02:09:20;;;;;;;3.57;2.20;;;17.90;99.90;;;;;;2063493;28;20221;-85
2023/08/14 02:10:21;;;;;;;3.40;2.13;;;17.90;99.90;;;;;;2071548;28;20408;-85
2023/08/14 02:11:22;;;;;;;1.90;1.77;;;18.00;99.90;;;;;;2064473;28;20658;-85
2023/08/14 02:12:22;;;;;;;5.50;2.20;;;18.00;99.90;;;;;;2064564;28;20474;-85
2023/08/14 02:13:23;;;;;;;4.97;2.63;;;18.10;99.90;;;;;;2064058;28;20237;-85
2023/08/14 02:14:24;;;;;;;2.23;2.03;;;18.00;99.90;;;;;;2066136;28;20229;-85
2023/08/14 02:15:24;;;;;;;2.23;1.97;;;18.10;99.90;;;;;;2072678;28;20236;-85
2023/08/14 02:16:25;;;;;;;3.00;2.30;;;18.00;99.90;;;;;;2071906;28;20823;-85
2023/08/14 02:17:27;;;;;;;2.33;1.70;;;18.00;99.90;;;;;;2062909;28;20349;-85
2023/08/14 02:18:28;;;;;;;3.17;2.10;;;18.10;99.90;;;;;;2061086;28;20663;-85
2023/08/14 02:19:28;;;;;;;2.33;2.07;;;18.30;99.90;;;;;;2057993;28;20472;-85
2023/08/14 02:20:29;;;;;;;3.27;2.07;;;18.30;99.90;;;;;;2069110;28;20233;-85
2023/08/14 02:21:30;;;;;;;3.20;2.70;;;18.30;99.90;;;;;;2055726;28;20316;-85
2023/08/14 02:22:30;;;;;;;4.00;2.50;;;18.20;99.90;;;;;;2062528;28;20270;-86
2023/08/14 02:23:31;;;;;;;3.00;2.40;;;18.30;99.90;;;;;;2062912;28;20241;-85
2023/08/14 02:24:32;;;;;;;3.03;2.20;;;18.20;99.90;;;;;;2068331;28;20237;-86
2023/08/14 02:25:32;;;;;;;2.57;2.37;;;18.20;99.90;;;;;;2063173;28;20269;-85
2023/08/14 02:26:33;;;;;;;4.27;2.73;;;18.20;99.90;;;;;;2063339;28;20284;-85
2023/08/14 02:27:34;;;;;;;4.60;2.50;;;18.20;99.90;;;;;;2063582;28;20276;-85
2023/08/14 02:28:34;;;;;;;3.63;2.70;;;18.30;99.90;;;;;;2063225;28;20253;-85
2023/08/14 02:29:35;;;;;;;2.97;2.67;;;18.30;99.90;;;;;;2071053;28;20240;-85
2023/08/14 02:30:37;;;;;;;3.13;2.83;;;18.20;99.90;;;;;;2058942;28;20293;-85
2023/08/14 02:31:39;;;;;;;3.80;2.67;;;18.30;99.90;;;;;;2059735;28;20282;-85
2023/08/14 02:32:40;;;;;;;4.37;3.20;;;18.50;99.90;;;;;;2047025;28;20465;-85
2023/08/14 02:33:41;;;;;;;3.90;3.10;;;18.40;99.90;;;;;;2046916;28;20536;-85
2023/08/14 02:34:46;;;;;;;2.97;2.63;;;18.40;99.90;;;;;;2062502;28;20367;-85
2023/08/14 02:35:47;;;;;;;4.83;2.63;;;18.40;99.90;;;;;;2070811;28;20225;-85
2023/08/14 02:36:47;;;;;;;3.00;2.70;;;18.40;99.90;;;;;;2070641;28;20549;-85
2023/08/14 02:37:54;;;;;;;3.53;2.97;;;18.50;99.90;;;;;;2063300;28;20252;-85
2023/08/14 02:38:55;;;;;;;4.70;2.60;;;18.50;99.90;;;;;;2061065;28;20226;-85
2023/08/14 02:39:55;;;;;;;5.13;3.50;;;18.50;99.90;;;;;;2067230;28;21050;-85
2023/08/14 02:40:56;;;;;;;3.70;2.63;;;18.50;99.90;;;;;;2060434;28;20676;-85
2023/08/14 02:41:57;;;;;;;4.67;3.40;;;18.40;99.90;;;;;;2066644;28;20316;-85
2023/08/14 02:43:01;;;;;;;3.83;2.57;;;18.40;99.90;;;;;;2067263;28;20471;-85
2023/08/14 02:44:02;;;;;;;4.20;2.70;;;18.40;99.90;;;;;;2060133;28;20245;-85
2023/08/14 02:45:03;;;;;;;2.97;2.40;;;18.40;99.90;;;;;;2063422;28;20483;-85
2023/08/14 02:46:04;;;;;;;3.40;2.60;;;18.50;99.90;;;;;;2068753;28;20662;-85
2023/08/14 02:47:05;;;;;;;2.90;2.60;;;18.50;99.90;;;;;;2067806;28;20448;-85
2023/08/14 02:48:06;;;;;;;3.53;2.90;;;18.50;99.90;;;;;;2062410;28;20190;-85
2023/08/14 02:49:06;;;;;;;6.23;2.53;;;18.50;99.90;;;;;;2054430;28;20443;-85
2023/08/14 02:50:07;;;;;;;3.00;2.50;;;18.50;99.90;;;;;;2054533;28;20195;-85
2023/08/14 02:51:08;;;;;;;2.70;2.40;;;18.50;99.90;;;;;;2062637;28;20186;-85
2023/08/14 02:52:09;;;;;;;3.57;2.60;;;18.50;99.90;;;;;;2069760;28;20213;-85
2023/08/14 02:53:10;;;;;;;2.57;2.20;;;18.50;99.90;;;;;;2054689;28;20882;-85
2023/08/14 02:54:10;;;;;;;3.10;2.67;;;18.50;99.90;;;;;;2055095;28;20202;-85
2023/08/14 02:55:11;;;;;;;2.90;2.47;;;18.50;99.90;;;;;;2062698;28;20214;-85
2023/08/14 02:56:12;;;;;;;3.93;2.67;;;18.40;99.90;;;;;;2071224;28;20693;-85
2023/08/14 02:57:12;;;;;;;2.93;2.33;;;18.40;99.90;;;;;;2061935;28;20218;-85
2023/08/14 02:58:13;;;;;;;3.53;3.20;;;18.50;99.90;;;;;;2060480;28;20194;-85
2023/08/14 02:59:14;;;;;;;3.03;2.67;;;18.50;99.90;;;;;;2062572;28;20198;-85
2023/08/14 03:00:15;;;;;;;2.80;2.50;;;18.40;99.90;;;;;;2050922;28;20223;-85
2023/08/14 03:01:16;;;;;;;4.07;2.90;;;18.40;99.90;;;;;;2062390;28;20436;-85
2023/08/14 03:02:16;;;;;;;4.40;2.90;;;18.50;99.90;;;;;;2063194;28;20241;-85
2023/08/14 03:03:17;;;;;;;4.90;2.60;;;18.50;99.90;;;;;;2062778;28;20762;-86
2023/08/14 03:04:18;;;;;;;2.97;2.67;;;18.50;99.90;;;;;;2063397;28;20221;-84
2023/08/14 03:05:19;;;;;;;3.23;2.87;;;18.40;99.90;;;;;;2062251;28;20288;-86
2023/08/14 03:06:19;;;;;;;4.27;3.20;;;18.30;99.90;;;;;;2071258;28;20583;-85
2023/08/14 03:07:20;;;;;;;3.40;3.10;;;18.40;99.90;;;;;;2062796;28;20227;-85
2023/08/14 03:08:21;;;;;;;2.70;2.47;;;18.30;99.90;;;;;;2066589;28;20705;-85
2023/08/14 03:09:21;;;;;;;3.20;2.73;;;18.40;99.90;;;;;;2069377;28;20236;-85
2023/08/14 03:10:25;;;;;;;5.93;2.60;;;18.50;99.90;;;;;;2068412;28;20287;-86
2023/08/14 03:11:26;;;;;;;3.43;2.60;;;18.30;99.90;;;;;;2068724;28;20953;-86
2023/08/14 03:12:27;;;;;;;2.83;2.43;;;18.30;99.90;;;;;;2055221;28;20527;-86
2023/08/14 03:13:28;;;;;;;4.77;2.80;;;18.30;99.90;;;;;;2054044;28;20875;-86
2023/08/14 03:14:28;;;;;;;2.70;2.50;;;18.30;99.90;;;;;;2062488;28;20253;-85
2023/08/14 03:15:29;;;;;;;4.20;3.00;;;18.40;99.90;;;;;;2054446;28;20333;-86
2023/08/14 03:16:30;;;;;;;3.17;2.63;;;18.40;99.90;;;;;;2053679;28;20302;-86
2023/08/14 03:17:31;;;;;;;3.00;2.63;;;18.50;99.90;;;;;;2062598;28;20234;-85
2023/08/14 03:18:31;;;;;;;7.10;3.30;;;18.50;99.90;;;;;;2054964;28;20238;-85
2023/08/14 03:19:32;;;;;;;3.27;2.97;;;18.40;99.90;;;;;;2059145;28;20329;-85
2023/08/14 03:20:33;;;;;;;5.63;2.60;;;18.50;99.90;;;;;;2076626;28;20612;-85
2023/08/14 03:21:34;;;;;;;5.03;3.10;;;18.60;99.90;;;;;;2070091;28;20244;-85
2023/08/14 03:22:34;;;;;;;5.27;2.90;;;18.50;99.90;;;;;;2062417;28;20248;-85
2023/08/14 03:23:36;;;;;;;2.60;2.37;;;18.50;99.90;;;;;;2062349;28;20226;-86
2023/08/14 03:24:36;;;;;;;4.37;2.70;;;18.40;99.90;;;;;;2062921;28;20222;-85
2023/08/14 03:25:37;;;;;;;3.13;2.60;;;18.40;99.90;;;;;;2062926;28;20498;-85
2023/08/14 03:26:38;;;;;;;3.77;2.93;;;18.40;99.90;;;;;;2062433;28;20629;-85
2023/08/14 03:27:38;;;;;;;4.47;3.07;;;18.30;99.90;;;;;;2066215;28;20230;-85
2023/08/14 03:28:39;;;;;;;3.90;2.90;;;18.30;99.90;;;;;;2066668;28;20229;-85
2023/08/14 03:29:40;;;;;;;3.77;3.20;;;18.40;99.90;;;;;;2062160;28;20237;-85
2023/08/14 03:30:43;;;;;;;4.43;3.10;;;18.30;99.90;;;;;;2062397;28;20242;-85
2023/08/14 03:31:44;;;;;;;4.00;3.03;;;18.40;99.90;;;;;;2067069;28;20581;-84
2023/08/14 03:32:45;;;;;;;2.90;2.60;;;18.40;99.90;;;;;;2067270;28;20482;-85
2023/08/14 03:33:45;;;;;;;3.73;3.00;;;18.40;99.90;;;;;;2066473;28;20893;-85
2023/08/14 03:34:46;;;;;;;3.47;2.87;;;18.40;99.90;;;;;;2068932;28;20299;-85
2023/08/14 03:35:47;;;;;;;4.43;3.53;;;18.50;99.90;;;;;;2060071;28;20226;-85
2023/08/14 03:36:47;;;;;;;4.27;2.93;;;18.50;99.90;;;;;;2070255;28;20433;-86
2023/08/14 03:37:48;;;;;;;3.40;2.97;;;18.50;99.90;;;;;;2058427;28;20266;-84
2023/08/14 03:38:49;;;;;;;3.10;2.80;;;18.50;99.90;;;;;;2066522;28;20225;-85
2023/08/14 03:39:49;;;;;;;3.53;3.07;;;18.50;99.90;;;;;;2067604;28;20245;-85
2023/08/14 03:40:50;;;;;;;3.30;3.00;;;18.50;99.90;;;;;;2069812;28;20260;-86
2023/08/14 03:41:51;;;;;;;5.23;2.70;;;18.50;99.90;;;;;;2062654;28;20222;-85
2023/08/14 03:42:52;;;;;;;4.80;2.83;;;18.50;99.90;;;;;;2066697;28;20272;-85
2023/08/14 03:43:53;;;;;;;3.90;2.90;;;18.50;99.90;;;;;;2059259;28;20225;-86
2023/08/14 03:44:53;;;;;;;3.47;3.13;;;18.40;99.90;;;;;;2060977;28;20522;-85
2023/08/14 03:45:54;;;;;;;6.40;3.37;;;18.40;99.90;;;;;;2069943;28;20475;-85
2023/08/14 03:46:55;;;;;;;4.27;2.80;;;18.50;99.90;;;;;;2066896;28;20757;-85
2023/08/14 03:47:56;;;;;;;3.63;2.70;;;18.50;99.90;;;;;;2071315;28;20202;-85
2023/08/14 03:48:56;;;;;;;4.10;2.83;;;18.40;99.90;;;;;;2070360;28;20289;-85
2023/08/14 03:49:57;;;;;;;5.60;3.93;;;18.30;99.90;;;;;;2064138;28;20211;-85
2023/08/14 03:50:58;;;;;;;5.60;4.00;;;18.30;99.90;;;;;;2063456;28;20879;-85
2023/08/14 03:51:58;;;;;;;4.83;4.00;;;18.20;99.90;;;;;;2072072;28;20228;-85
2023/08/14 03:52:59;;;;;;;5.10;3.30;;;18.30;99.90;;;;;;2068938;28;20276;-85
2023/08/14 03:54:00;;;;;;;5.27;3.40;;;18.30;99.90;;;;;;2070144;28;20549;-86
2023/08/14 03:55:01;;;;;;;3.97;3.57;;;18.30;99.90;;;;;;2066870;28;20664;-85
2023/08/14 03:56:01;;;;;;;4.33;3.93;;;18.20;99.90;;;;;;2066740;28;20205;-85
2023/08/14 03:57:02;;;;;;;4.97;3.63;;;18.20;99.90;;;;;;2052415;28;20206;-85
2023/08/14 03:58:03;;;;;;;3.97;3.63;;;18.30;99.90;;;;;;2051382;28;20191;-86
2023/08/14 03:59:04;;;;;;;4.43;3.90;;;18.30;99.90;;;;;;2058686;28;20214;-85
2023/08/14 04:00:06;;;;;;;3.93;3.40;;;18.40;99.90;;;;;;2062604;28;20189;-86
2023/08/14 04:01:07;;;;;;;4.33;3.77;;;18.40;99.90;;;;;;2070327;28;20427;-85
2023/08/14 04:02:08;;;;;;;4.37;3.70;;;18.30;99.90;;;;;;2059668;28;20456;-86
2023/08/14 04:03:08;;;;;;;4.57;3.40;;;18.30;99.90;;;;;;2050392;28;20211;-85
2023/08/14 04:04:10;;;;;;;4.83;3.60;;;18.30;99.90;;;;;;2051045;28;20183;-85
2023/08/14 04:05:10;;;;;;;4.73;4.00;;;18.30;99.90;;;;;;2059149;28;20219;-85
2023/08/14 04:06:11;;;;;;;5.70;4.13;;;18.30;99.90;;;;;;2062632;28;20431;-85
2023/08/14 04:07:12;;;;;;;5.60;4.40;;;18.20;99.90;;;;;;2070025;28;20212;-85
2023/08/14 04:08:14;;;;;;;4.50;3.70;;;18.30;99.90;;;;;;2061261;28;20182;-86
2023/08/14 04:09:14;;;;;;;4.87;4.00;;;18.20;99.90;;;;;;2063078;28;20737;-85
2023/08/14 04:10:15;;;;;;;5.37;4.87;;;18.30;99.90;;;;;;2053619;28;20437;-85
2023/08/14 04:11:16;;;;;;;4.47;4.07;;;18.30;99.90;;;;;;2054840;28;20753;-85
2023/08/14 04:12:16;;;;;;;5.23;4.10;;;18.30;99.90;;;;;;2054863;28;20202;-85
2023/08/14 04:13:17;;;;;;;4.83;4.10;;;18.40;99.90;;;;;;2070337;28;20268;-85
2023/08/14 04:14:18;;;;;;;9.20;7.47;;;18.50;99.90;;;;;;2062414;28;20245;-84
2023/08/14 04:15:19;;;;;;;5.37;4.87;;;18.70;99.90;;;;;;2062825;28;20216;-85
2023/08/14 04:16:20;;;;;;;5.83;4.93;;;18.70;99.90;;;;;;2062092;28;20205;-85
2023/08/14 04:17:20;;;;;;;5.90;5.30;;;18.80;99.90;;;;;;2054103;28;20468;-85
2023/08/14 04:18:21;;;;;;;6.07;5.27;;;18.80;99.90;;;;;;2054584;28;20250;-85
2023/08/14 04:19:22;;;;;;;6.77;5.33;;;18.80;99.90;;;;;;2067697;28;20303;-85
2023/08/14 04:20:23;;;;;;;5.37;4.87;;;18.70;99.90;;;;;;2069632;28;20272;-85
2023/08/14 04:21:23;;;;;;;7.37;5.90;;;18.70;99.90;;;;;;2065373;28;20483;-85
2023/08/14 04:22:24;;;;;;;6.23;5.10;;;18.70;99.90;;;;;;2066958;28;20268;-85
2023/08/14 04:23:26;;;;;;;6.40;4.93;;;18.70;99.90;;;;;;2063586;28;20671;-85
2023/08/14 04:24:27;;;;;;;6.30;5.23;;;18.70;99.90;;;;;;2069320;28;20252;-85
2023/08/14 04:25:28;;;;;;;6.23;5.60;;;18.60;99.90;;;;;;2063581;28;20468;-85
2023/08/14 04:26:29;;;;;;;5.50;4.83;;;18.70;99.90;;;;;;2047826;28;20236;-85
2023/08/14 04:27:30;;;;;;;5.37;4.87;;;18.80;99.90;;;;;;2063824;28;20511;-85
2023/08/14 04:28:31;;;;;;;6.23;5.60;;;18.70;99.90;;;;;;2064200;28;20654;-85
2023/08/14 04:29:32;;;;;;;7.33;5.30;;;18.70;99.90;;;;;;2072502;28;20474;-85
2023/08/14 04:30:32;;;;;;;6.00;5.40;;;18.70;99.90;;;;;;2063600;28;20245;-85
2023/08/14 04:31:37;;;;;;;7.73;5.70;;;18.70;99.90;;;;;;2056162;28;20230;-85
2023/08/14 04:32:38;;;;;;;6.40;5.50;;;18.80;99.90;;;;;;2063345;28;20241;-85
2023/08/14 04:33:39;;;;;;;6.67;5.27;;;18.80;99.90;;;;;;2067531;28;21161;-85
2023/08/14 04:34:39;;;;;;;7.67;5.33;;;18.90;99.90;;;;;;2079944;28;20221;-85
2023/08/14 04:35:40;;;;;;;7.30;5.60;;;18.80;99.90;;;;;;2072548;28;20361;-85
2023/08/14 04:36:41;;;;;;;6.20;5.30;;;18.80;99.90;;;;;;2070518;28;20296;-85
2023/08/14 04:37:42;;;;;;;8.20;5.83;;;18.80;99.90;;;;;;2072510;28;20468;-85
2023/08/14 04:38:42;;;;;;;6.83;5.83;;;18.70;99.90;;;;;;2071674;28;20220;-85
2023/08/14 04:39:43;;;;;;;8.80;6.27;;;18.70;99.90;;;;;;2071830;28;20218;-85
2023/08/14 04:40:44;;;;;;;7.47;6.60;;;18.70;99.90;;;;;;2056178;28;20298;-85
2023/08/14 04:41:44;;;;;;;9.03;7.63;;;18.70;99.90;;;;;;2055105;28;20305;-85
2023/08/14 04:42:45;;;;;;;9.63;7.30;;;18.60;99.90;;;;;;2055741;28;20330;-85
2023/08/14 04:43:46;;;;;;;8.73;7.20;;;18.80;99.90;;;;;;2055785;28;20281;-86
2023/08/14 04:44:46;;;;;;;9.67;7.37;;;18.80;99.90;;;;;;2064182;28;20233;-85
2023/08/14 04:45:47;;;;;;;8.20;7.40;;;18.90;99.90;;;;;;2064133;28;20667;-85
2023/08/14 04:46:50;;;;;;;8.23;7.17;;;18.90;99.90;;;;;;2071745;28;20629;-85
2023/08/14 04:47:51;;;;;;;8.33;7.17;;;19.00;99.90;;;;;;2070206;28;20271;-85
2023/08/14 04:48:52;;;;;;;10.17;7.67;;;19.10;99.90;;;;;;2067875;28;20875;-85
2023/08/14 04:49:52;;;;;;;9.50;7.90;;;19.10;99.90;;;;;;2075700;28;20489;-85
2023/08/14 04:50:53;;;;;;;10.23;8.53;;;19.20;99.90;;;;;;2071539;28;20649;-85
2023/08/14 04:51:54;;;;;;;9.90;8.47;;;19.20;99.90;;;;;;2061231;28;20218;-85
2023/08/14 04:52:54;;;;;;;11.03;7.67;;;19.20;99.90;;;;;;2063305;28;20218;-84
2023/08/14 04:53:57;;;;;;;9.30;7.07;;;19.20;99.90;;;;;;2067728;28;20303;-85
2023/08/14 04:54:57;;;;;;;7.97;7.17;;;19.20;99.90;;;;;;2067952;28;20222;-85
2023/08/14 04:55:58;;;;;;;8.50;7.27;;;19.30;99.90;;;;;;2064978;28;20509;-86
2023/08/14 04:56:59;;;;;;;7.77;6.97;;;19.30;99.90;;;;;;2067410;28;20249;-86
2023/08/14 04:57:59;;;;;;;9.33;7.03;;;19.30;99.90;;;;;;2063836;28;20226;-85
2023/08/14 04:59:00;;;;;;;11.70;8.50;;;19.30;99.90;;;;;;2055829;28;20222;-85
2023/08/14 05:00:01;;;;;;;8.13;7.33;;;19.30;99.90;;;;;;2062486;28;20218;-86
2023/08/14 05:01:02;;;;;;;9.97;7.87;;;19.40;99.90;;;;;;2064321;28;20186;-84
2023/08/14 05:02:03;;;;;;;10.17;8.13;;;19.30;99.90;;;;;;2071404;28;20216;-85
2023/08/14 05:03:04;;;;;;;9.40;7.77;;;19.30;99.90;;;;;;2070597;28;20177;-85
2023/08/14 05:04:05;;;;;;;8.57;7.70;;;19.30;99.90;;;;;;2063585;28;20419;-85
2023/08/14 05:05:06;;;;;;;10.60;8.03;;;19.30;99.90;;;;;;2069957;28;20194;-85
2023/08/14 05:06:07;;;;;;;10.03;8.40;;;19.20;99.90;;;;;;2063658;28;20182;-85
2023/08/14 05:07:08;;;;;;;13.03;8.43;;;19.30;99.90;;;;;;2063710;28;20283;-85
2023/08/14 05:08:08;;;;;;;9.47;8.50;;;19.30;99.90;;;;;;2063782;28;20428;-85
2023/08/14 05:09:09;;;;;;;10.60;9.57;;;19.30;99.90;;;;;;2062487;28;20664;-85
2023/08/14 05:10:10;;;;;;;10.77;8.93;;;19.30;99.90;;;;;;2063429;28;20190;-86
2023/08/14 05:11:10;;;;;;;10.20;9.20;;;19.30;99.90;;;;;;2056551;28;20693;-85
2023/08/14 05:12:11;;;;;;;14.53;9.97;;;19.40;99.90;;;;;;2066167;28;20198;-85
2023/08/14 05:13:12;;;;;;;11.80;9.93;;;19.30;99.90;;;;;;2076384;28;20189;-85
2023/08/14 05:14:12;;;;;;;13.53;8.93;;;19.30;99.90;;;;;;2078030;28;20201;-85
2023/08/14 05:15:13;;;;;;;9.37;7.90;;;19.30;99.90;;;;;;2079993;28;20212;-85
2023/08/14 05:16:14;;;;;;;11.03;9.33;;;19.30;99.90;;;;;;2068994;28;20244;-85
2023/08/14 05:17:14;;;;;;;10.23;8.87;;;19.30;99.90;;;;;;2066991;28;20217;-85
2023/08/14 05:18:16;;;;;;;11.23;9.07;;;19.40;99.90;;;;;;2079980;28;20205;-85
2023/08/14 05:19:17;;;;;;;10.80;8.77;;;19.40;99.90;;;;;;2059914;28;20222;-86
2023/08/14 05:20:18;;;;;;;10.93;8.10;;;19.40;99.90;;;;;;2063916;28;20490;-85
2023/08/14 05:21:18;;;;;;;9.73;8.10;;;19.40;99.90;;;;;;2080272;28;20507;-85
2023/08/14 05:22:19;;;;;;;8.67;7.77;;;19.30;99.90;;;;;;2081039;28;20642;-85